Kent, Oregon
Current Conditions -  °F | °C
As of 10:53 PM on Sunday 23 Nov 2014 (Local Time) from KDLS Reporting Station
Scattered Clouds Scattered Clouds  
Wind Chill: 50°   Ceiling: Unl
Heat Index: 50°   Visibility: 10mi
Dew Point: 43°   Wind: 12mph
Humidity: 77%   Direction: 350°N
Pressure: 30.27"   Gusts: 21mph
Location:  45.2°N, 120.7°W
Report Text: KDLS 240653Z AUTO 35010G18KT 10SM SCT033 10/06 A3027 RMK AO2 SLP251 T01000061 $
Loading
Personal Weather Stations






























Interactive Weather Map New forecast layout! Learn more

10-Day Weather Forecast

Advertisements
Track Severe Weather on mobile